sensor_id;sensor_type;location;lat;lon;timestamp;P1;durP1;ratioP1;P2;durP2;ratioP2
82950;SDS011;72737;53.332;6.514;2024-03-08T00:04:15;10.25;;;6.13;;
82950;SDS011;72737;53.332;6.514;2024-03-08T00:06:41;8.77;;;5.20;;
82950;SDS011;72737;53.332;6.514;2024-03-08T00:09:07;8.80;;;5.90;;
82950;SDS011;72737;53.332;6.514;2024-03-08T00:11:35;10.50;;;6.18;;
82950;SDS011;72737;53.332;6.514;2024-03-08T00:14:00;10.30;;;5.82;;
82950;SDS011;72737;53.332;6.514;2024-03-08T00:16:27;10.27;;;6.07;;
82950;SDS011;72737;53.332;6.514;2024-03-08T00:18:53;9.90;;;6.22;;
82950;SDS011;72737;53.332;6.514;2024-03-08T00:21:18;10.90;;;6.13;;
82950;SDS011;72737;53.332;6.514;2024-03-08T00:23:43;10.27;;;6.00;;
82950;SDS011;72737;53.332;6.514;2024-03-08T00:26:09;10.60;;;5.93;;
82950;SDS011;72737;53.332;6.514;2024-03-08T00:28:34;9.30;;;5.70;;
82950;SDS011;72737;53.332;6.514;2024-03-08T00:31:00;10.45;;;6.53;;
82950;SDS011;72737;53.332;6.514;2024-03-08T00:33:27;10.38;;;6.15;;
82950;SDS011;72737;53.332;6.514;2024-03-08T00:35:56;9.73;;;6.30;;
82950;SDS011;72737;53.332;6.514;2024-03-08T00:40:47;9.88;;;6.00;;
82950;SDS011;72737;53.332;6.514;2024-03-08T00:43:13;9.77;;;6.30;;
82950;SDS011;72737;53.332;6.514;2024-03-08T00:45:38;10.05;;;6.03;;
82950;SDS011;72737;53.332;6.514;2024-03-08T00:48:04;9.65;;;6.03;;
82950;SDS011;72737;53.332;6.514;2024-03-08T00:50:30;10.95;;;6.60;;
82950;SDS011;72737;53.332;6.514;2024-03-08T00:52:56;9.82;;;5.80;;
82950;SDS011;72737;53.332;6.514;2024-03-08T00:55:21;10.75;;;6.15;;
82950;SDS011;72737;53.332;6.514;2024-03-08T00:57:47;9.95;;;6.25;;
82950;SDS011;72737;53.332;6.514;2024-03-08T01:00:12;9.27;;;5.60;;
82950;SDS011;72737;53.332;6.514;2024-03-08T01:02:38;11.02;;;7.00;;
82950;SDS011;72737;53.332;6.514;2024-03-08T01:05:05;13.73;;;6.70;;
82950;SDS011;72737;53.332;6.514;2024-03-08T01:07:33;10.25;;;6.10;;
82950;SDS011;72737;53.332;6.514;2024-03-08T01:10:02;10.75;;;6.10;;
82950;SDS011;72737;53.332;6.514;2024-03-08T01:12:28;10.82;;;6.70;;
82950;SDS011;72737;53.332;6.514;2024-03-08T01:14:54;9.00;;;6.20;;
82950;SDS011;72737;53.332;6.514;2024-03-08T01:17:20;9.90;;;6.03;;
82950;SDS011;72737;53.332;6.514;2024-03-08T01:19:46;11.60;;;6.22;;
82950;SDS011;72737;53.332;6.514;2024-03-08T01:22:12;9.93;;;6.30;;
82950;SDS011;72737;53.332;6.514;2024-03-08T01:24:37;8.70;;;6.15;;
82950;SDS011;72737;53.332;6.514;2024-03-08T01:27:03;9.82;;;6.07;;
82950;SDS011;72737;53.332;6.514;2024-03-08T01:29:29;10.95;;;5.88;;
82950;SDS011;72737;53.332;6.514;2024-03-08T01:31:55;11.77;;;6.88;;
82950;SDS011;72737;53.332;6.514;2024-03-08T01:34:21;11.07;;;6.47;;
82950;SDS011;72737;53.332;6.514;2024-03-08T01:36:49;9.63;;;6.07;;
82950;SDS011;72737;53.332;6.514;2024-03-08T01:39:15;10.98;;;6.55;;
82950;SDS011;72737;53.332;6.514;2024-03-08T01:41:40;9.98;;;6.45;;
82950;SDS011;72737;53.332;6.514;2024-03-08T01:44:06;11.82;;;6.28;;
82950;SDS011;72737;53.332;6.514;2024-03-08T01:46:32;9.77;;;5.90;;
82950;SDS011;72737;53.332;6.514;2024-03-08T01:48:59;10.15;;;6.63;;
82950;SDS011;72737;53.332;6.514;2024-03-08T01:51:28;10.38;;;6.53;;
82950;SDS011;72737;53.332;6.514;2024-03-08T01:53:54;11.10;;;6.15;;
82950;SDS011;72737;53.332;6.514;2024-03-08T01:56:24;10.43;;;6.68;;
82950;SDS011;72737;53.332;6.514;2024-03-08T01:58:50;9.38;;;6.03;;
82950;SDS011;72737;53.332;6.514;2024-03-08T02:01:16;9.82;;;6.20;;
82950;SDS011;72737;53.332;6.514;2024-03-08T02:03:44;9.13;;;6.07;;
82950;SDS011;72737;53.332;6.514;2024-03-08T02:06:13;10.40;;;6.10;;
82950;SDS011;72737;53.332;6.514;2024-03-08T02:11:10;10.35;;;6.10;;
82950;SDS011;72737;53.332;6.514;2024-03-08T02:13:36;11.02;;;6.18;;
82950;SDS011;72737;53.332;6.514;2024-03-08T02:16:01;11.38;;;6.45;;
82950;SDS011;72737;53.332;6.514;2024-03-08T02:18:30;9.60;;;6.47;;
82950;SDS011;72737;53.332;6.514;2024-03-08T02:21:00;10.57;;;6.20;;
82950;SDS011;72737;53.332;6.514;2024-03-08T02:23:27;9.63;;;5.93;;
82950;SDS011;72737;53.332;6.514;2024-03-08T02:25:54;9.35;;;5.70;;
82950;SDS011;72737;53.332;6.514;2024-03-08T02:28:20;11.25;;;5.95;;
82950;SDS011;72737;53.332;6.514;2024-03-08T02:30:46;10.77;;;6.63;;
82950;SDS011;72737;53.332;6.514;2024-03-08T02:33:15;10.32;;;6.40;;
82950;SDS011;72737;53.332;6.514;2024-03-08T02:35:42;10.23;;;6.50;;
82950;SDS011;72737;53.332;6.514;2024-03-08T02:38:11;11.90;;;6.57;;
82950;SDS011;72737;53.332;6.514;2024-03-08T02:40:38;9.25;;;5.65;;
82950;SDS011;72737;53.332;6.514;2024-03-08T02:43:03;9.77;;;6.13;;
82950;SDS011;72737;53.332;6.514;2024-03-08T02:45:30;9.43;;;5.95;;
82950;SDS011;72737;53.332;6.514;2024-03-08T02:47:56;9.27;;;5.30;;
82950;SDS011;72737;53.332;6.514;2024-03-08T02:50:21;10.45;;;6.30;;
82950;SDS011;72737;53.332;6.514;2024-03-08T02:52:47;9.90;;;5.55;;
82950;SDS011;72737;53.332;6.514;2024-03-08T02:55:13;10.60;;;5.80;;
82950;SDS011;72737;53.332;6.514;2024-03-08T02:57:42;8.95;;;5.43;;
82950;SDS011;72737;53.332;6.514;2024-03-08T03:00:12;10.65;;;6.03;;
82950;SDS011;72737;53.332;6.514;2024-03-08T03:02:39;9.40;;;5.63;;
82950;SDS011;72737;53.332;6.514;2024-03-08T03:05:05;9.65;;;6.18;;
82950;SDS011;72737;53.332;6.514;2024-03-08T03:07:34;8.70;;;5.60;;
82950;SDS011;72737;53.332;6.514;2024-03-08T03:09:59;10.40;;;5.80;;
82950;SDS011;72737;53.332;6.514;2024-03-08T03:12:29;9.55;;;6.00;;
82950;SDS011;72737;53.332;6.514;2024-03-08T03:14:58;9.38;;;6.10;;
82950;SDS011;72737;53.332;6.514;2024-03-08T03:17:23;9.38;;;5.55;;
82950;SDS011;72737;53.332;6.514;2024-03-08T03:19:50;9.52;;;5.90;;
82950;SDS011;72737;53.332;6.514;2024-03-08T03:22:19;9.43;;;5.53;;
82950;SDS011;72737;53.332;6.514;2024-03-08T03:24:45;10.65;;;5.60;;
82950;SDS011;72737;53.332;6.514;2024-03-08T03:27:17;9.82;;;5.65;;
82950;SDS011;72737;53.332;6.514;2024-03-08T03:29:43;8.63;;;5.72;;
82950;SDS011;72737;53.332;6.514;2024-03-08T03:32:14;10.25;;;5.93;;
82950;SDS011;72737;53.332;6.514;2024-03-08T03:34:41;9.93;;;5.95;;
82950;SDS011;72737;53.332;6.514;2024-03-08T03:37:09;9.23;;;5.40;;
82950;SDS011;72737;53.332;6.514;2024-03-08T03:39:37;10.25;;;6.03;;
82950;SDS011;72737;53.332;6.514;2024-03-08T03:42:22;9.35;;;5.95;;
82950;SDS011;72737;53.332;6.514;2024-03-08T03:44:49;10.25;;;5.65;;
82950;SDS011;72737;53.332;6.514;2024-03-08T03:47:15;9.73;;;5.55;;
82950;SDS011;72737;53.332;6.514;2024-03-08T03:49:41;9.38;;;5.55;;
82950;SDS011;72737;53.332;6.514;2024-03-08T03:52:07;10.20;;;5.80;;
82950;SDS011;72737;53.332;6.514;2024-03-08T03:54:32;9.55;;;5.70;;
82950;SDS011;72737;53.332;6.514;2024-03-08T03:56:58;9.88;;;5.50;;
82950;SDS011;72737;53.332;6.514;2024-03-08T03:59:26;9.95;;;5.53;;
82950;SDS011;72737;53.332;6.514;2024-03-08T04:01:56;9.95;;;6.10;;
82950;SDS011;72737;53.332;6.514;2024-03-08T04:04:21;9.57;;;5.05;;
82950;SDS011;72737;53.332;6.514;2024-03-08T04:06:47;8.50;;;5.32;;
82950;SDS011;72737;53.332;6.514;2024-03-08T04:09:13;9.30;;;5.13;;
82950;SDS011;72737;53.332;6.514;2024-03-08T04:11:40;8.82;;;5.15;;
82950;SDS011;72737;53.332;6.514;2024-03-08T04:14:05;8.90;;;5.40;;
82950;SDS011;72737;53.332;6.514;2024-03-08T04:16:31;10.70;;;5.68;;
82950;SDS011;72737;53.332;6.514;2024-03-08T04:18:57;9.80;;;5.07;;
82950;SDS011;72737;53.332;6.514;2024-03-08T04:21:23;9.18;;;5.50;;
82950;SDS011;72737;53.332;6.514;2024-03-08T04:23:48;9.32;;;5.35;;
82950;SDS011;72737;53.332;6.514;2024-03-08T04:26:14;8.80;;;5.75;;
82950;SDS011;72737;53.332;6.514;2024-03-08T04:28:39;8.10;;;4.90;;
82950;SDS011;72737;53.332;6.514;2024-03-08T04:31:06;9.30;;;5.10;;
82950;SDS011;72737;53.332;6.514;2024-03-08T04:33:32;8.13;;;4.95;;
82950;SDS011;72737;53.332;6.514;2024-03-08T04:35:57;9.73;;;5.60;;
82950;SDS011;72737;53.332;6.514;2024-03-08T04:38:23;8.77;;;5.32;;
82950;SDS011;72737;53.332;6.514;2024-03-08T04:40:49;8.77;;;5.07;;
82950;SDS011;72737;53.332;6.514;2024-03-08T04:43:15;8.35;;;4.63;;
82950;SDS011;72737;53.332;6.514;2024-03-08T04:45:43;8.82;;;5.18;;
82950;SDS011;72737;53.332;6.514;2024-03-08T04:48:09;9.32;;;5.03;;
82950;SDS011;72737;53.332;6.514;2024-03-08T04:50:34;8.32;;;5.18;;
82950;SDS011;72737;53.332;6.514;2024-03-08T04:53:01;9.80;;;5.53;;
82950;SDS011;72737;53.332;6.514;2024-03-08T04:55:28;9.70;;;5.82;;
82950;SDS011;72737;53.332;6.514;2024-03-08T04:57:55;9.00;;;4.93;;
82950;SDS011;72737;53.332;6.514;2024-03-08T05:00:20;10.48;;;5.45;;
82950;SDS011;72737;53.332;6.514;2024-03-08T05:02:46;10.13;;;5.30;;
82950;SDS011;72737;53.332;6.514;2024-03-08T05:05:12;9.20;;;5.60;;
82950;SDS011;72737;53.332;6.514;2024-03-08T05:07:38;8.02;;;5.20;;
82950;SDS011;72737;53.332;6.514;2024-03-08T05:10:05;9.13;;;5.28;;
82950;SDS011;72737;53.332;6.514;2024-03-08T05:12:32;9.57;;;5.38;;
82950;SDS011;72737;53.332;6.514;2024-03-08T05:14:57;8.60;;;4.68;;
82950;SDS011;72737;53.332;6.514;2024-03-08T05:17:23;9.88;;;4.97;;
82950;SDS011;72737;53.332;6.514;2024-03-08T05:19:49;10.32;;;5.03;;
82950;SDS011;72737;53.332;6.514;2024-03-08T05:22:15;8.80;;;5.10;;
82950;SDS011;72737;53.332;6.514;2024-03-08T05:24:43;8.80;;;5.05;;
82950;SDS011;72737;53.332;6.514;2024-03-08T05:27:08;9.82;;;5.20;;
82950;SDS011;72737;53.332;6.514;2024-03-08T05:29:34;8.32;;;5.18;;
82950;SDS011;72737;53.332;6.514;2024-03-08T05:31:59;9.52;;;5.18;;
82950;SDS011;72737;53.332;6.514;2024-03-08T05:34:26;8.73;;;4.60;;
82950;SDS011;72737;53.332;6.514;2024-03-08T05:36:53;7.72;;;4.75;;
82950;SDS011;72737;53.332;6.514;2024-03-08T05:39:19;9.43;;;5.03;;
82950;SDS011;72737;53.332;6.514;2024-03-08T05:41:45;9.93;;;5.28;;
82950;SDS011;72737;53.332;6.514;2024-03-08T05:44:11;9.18;;;5.45;;
82950;SDS011;72737;53.332;6.514;2024-03-08T05:46:38;9.45;;;5.13;;
82950;SDS011;72737;53.332;6.514;2024-03-08T05:49:04;9.98;;;5.55;;
82950;SDS011;72737;53.332;6.514;2024-03-08T05:51:31;8.30;;;4.78;;
82950;SDS011;72737;53.332;6.514;2024-03-08T05:54:01;8.45;;;4.78;;
82950;SDS011;72737;53.332;6.514;2024-03-08T05:56:31;9.85;;;5.22;;
82950;SDS011;72737;53.332;6.514;2024-03-08T05:58:59;8.45;;;5.20;;
82950;SDS011;72737;53.332;6.514;2024-03-08T06:01:26;13.68;;;5.15;;
82950;SDS011;72737;53.332;6.514;2024-03-08T06:03:52;9.73;;;5.32;;
82950;SDS011;72737;53.332;6.514;2024-03-08T06:06:20;8.60;;;4.95;;
82950;SDS011;72737;53.332;6.514;2024-03-08T06:08:47;9.27;;;4.72;;
82950;SDS011;72737;53.332;6.514;2024-03-08T06:11:18;10.18;;;5.25;;
82950;SDS011;72737;53.332;6.514;2024-03-08T06:13:45;9.00;;;4.75;;
82950;SDS011;72737;53.332;6.514;2024-03-08T06:16:11;12.13;;;4.97;;
82950;SDS011;72737;53.332;6.514;2024-03-08T06:18:37;11.45;;;4.78;;
82950;SDS011;72737;53.332;6.514;2024-03-08T06:21:06;12.25;;;4.90;;
82950;SDS011;72737;53.332;6.514;2024-03-08T06:23:33;14.98;;;5.03;;
82950;SDS011;72737;53.332;6.514;2024-03-08T06:25:58;10.73;;;5.60;;
82950;SDS011;72737;53.332;6.514;2024-03-08T06:28:25;13.95;;;5.47;;
82950;SDS011;72737;53.332;6.514;2024-03-08T06:33:19;13.55;;;5.38;;
82950;SDS011;72737;53.332;6.514;2024-03-08T06:35:45;13.75;;;5.60;;
82950;SDS011;72737;53.332;6.514;2024-03-08T06:38:10;16.08;;;5.55;;
82950;SDS011;72737;53.332;6.514;2024-03-08T06:40:36;13.02;;;6.40;;
82950;SDS011;72737;53.332;6.514;2024-03-08T06:43:02;13.00;;;5.63;;
82950;SDS011;72737;53.332;6.514;2024-03-08T06:45:31;14.63;;;6.20;;
82950;SDS011;72737;53.332;6.514;2024-03-08T06:47:57;14.27;;;6.50;;
82950;SDS011;72737;53.332;6.514;2024-03-08T06:50:22;14.48;;;6.20;;
82950;SDS011;72737;53.332;6.514;2024-03-08T06:52:48;17.55;;;6.30;;
82950;SDS011;72737;53.332;6.514;2024-03-08T06:55:18;16.35;;;6.00;;
82950;SDS011;72737;53.332;6.514;2024-03-08T06:57:46;16.90;;;6.40;;
82950;SDS011;72737;53.332;6.514;2024-03-08T07:00:12;17.08;;;6.40;;
82950;SDS011;72737;53.332;6.514;2024-03-08T07:02:43;14.30;;;5.93;;
82950;SDS011;72737;53.332;6.514;2024-03-08T07:05:11;13.98;;;6.03;;
82950;SDS011;72737;53.332;6.514;2024-03-08T07:07:36;17.25;;;6.63;;
82950;SDS011;72737;53.332;6.514;2024-03-08T07:10:02;13.13;;;5.97;;
82950;SDS011;72737;53.332;6.514;2024-03-08T07:12:29;14.30;;;5.72;;
82950;SDS011;72737;53.332;6.514;2024-03-08T07:14:56;16.35;;;6.60;;
82950;SDS011;72737;53.332;6.514;2024-03-08T07:17:21;15.15;;;6.78;;
82950;SDS011;72737;53.332;6.514;2024-03-08T07:19:47;13.20;;;6.05;;
82950;SDS011;72737;53.332;6.514;2024-03-08T07:22:12;12.63;;;5.97;;
82950;SDS011;72737;53.332;6.514;2024-03-08T07:24:38;12.25;;;6.15;;
82950;SDS011;72737;53.332;6.514;2024-03-08T07:27:05;14.77;;;5.90;;
82950;SDS011;72737;53.332;6.514;2024-03-08T07:29:32;13.15;;;5.78;;
82950;SDS011;72737;53.332;6.514;2024-03-08T07:31:59;13.85;;;6.13;;
82950;SDS011;72737;53.332;6.514;2024-03-08T07:34:44;12.57;;;6.03;;
82950;SDS011;72737;53.332;6.514;2024-03-08T07:37:09;12.60;;;5.35;;
82950;SDS011;72737;53.332;6.514;2024-03-08T07:39:36;14.90;;;6.00;;
82950;SDS011;72737;53.332;6.514;2024-03-08T07:42:03;15.27;;;5.90;;
82950;SDS011;72737;53.332;6.514;2024-03-08T07:44:29;14.55;;;5.80;;
82950;SDS011;72737;53.332;6.514;2024-03-08T07:49:21;11.93;;;5.35;;
82950;SDS011;72737;53.332;6.514;2024-03-08T07:51:47;13.65;;;5.78;;
82950;SDS011;72737;53.332;6.514;2024-03-08T07:54:14;13.80;;;5.65;;
82950;SDS011;72737;53.332;6.514;2024-03-08T07:56:41;14.27;;;5.90;;
82950;SDS011;72737;53.332;6.514;2024-03-08T07:59:08;13.63;;;5.60;;
82950;SDS011;72737;53.332;6.514;2024-03-08T08:01:33;14.65;;;5.15;;
82950;SDS011;72737;53.332;6.514;2024-03-08T08:03:59;16.27;;;6.15;;
82950;SDS011;72737;53.332;6.514;2024-03-08T08:08:53;13.57;;;6.13;;
82950;SDS011;72737;53.332;6.514;2024-03-08T08:11:18;13.88;;;5.72;;
82950;SDS011;72737;53.332;6.514;2024-03-08T08:13:45;11.43;;;5.40;;
82950;SDS011;72737;53.332;6.514;2024-03-08T08:16:11;11.70;;;5.45;;
82950;SDS011;72737;53.332;6.514;2024-03-08T08:18:38;12.13;;;6.30;;
82950;SDS011;72737;53.332;6.514;2024-03-08T08:21:05;12.48;;;5.80;;
82950;SDS011;72737;53.332;6.514;2024-03-08T08:23:33;11.60;;;5.88;;
82950;SDS011;72737;53.332;6.514;2024-03-08T08:28:29;12.60;;;5.55;;
82950;SDS011;72737;53.332;6.514;2024-03-08T08:30:55;12.82;;;5.70;;
82950;SDS011;72737;53.332;6.514;2024-03-08T08:33:21;12.90;;;5.55;;
82950;SDS011;72737;53.332;6.514;2024-03-08T08:35:46;11.73;;;5.60;;
82950;SDS011;72737;53.332;6.514;2024-03-08T08:38:14;12.85;;;5.57;;
82950;SDS011;72737;53.332;6.514;2024-03-08T08:40:39;11.77;;;5.80;;
82950;SDS011;72737;53.332;6.514;2024-03-08T08:45:32;13.38;;;6.18;;
82950;SDS011;72737;53.332;6.514;2024-03-08T08:47:58;11.75;;;5.80;;
82950;SDS011;72737;53.332;6.514;2024-03-08T08:50:27;12.27;;;5.30;;
82950;SDS011;72737;53.332;6.514;2024-03-08T08:52:54;12.18;;;5.43;;
82950;SDS011;72737;53.332;6.514;2024-03-08T08:55:20;10.90;;;5.85;;
82950;SDS011;72737;53.332;6.514;2024-03-08T08:57:47;10.27;;;5.43;;
82950;SDS011;72737;53.332;6.514;2024-03-08T09:00:14;9.38;;;5.30;;
82950;SDS011;72737;53.332;6.514;2024-03-08T09:02:43;10.82;;;5.93;;
82950;SDS011;72737;53.332;6.514;2024-03-08T09:05:09;11.07;;;5.63;;
82950;SDS011;72737;53.332;6.514;2024-03-08T09:07:35;10.05;;;5.57;;
82950;SDS011;72737;53.332;6.514;2024-03-08T09:10:00;11.05;;;5.55;;
82950;SDS011;72737;53.332;6.514;2024-03-08T09:12:26;10.00;;;5.30;;
82950;SDS011;72737;53.332;6.514;2024-03-08T09:14:52;9.90;;;5.68;;
82950;SDS011;72737;53.332;6.514;2024-03-08T09:17:17;11.70;;;6.10;;
82950;SDS011;72737;53.332;6.514;2024-03-08T09:19:46;11.50;;;5.80;;
82950;SDS011;72737;53.332;6.514;2024-03-08T09:24:39;11.63;;;5.07;;
82950;SDS011;72737;53.332;6.514;2024-03-08T09:27:04;11.52;;;5.93;;
82950;SDS011;72737;53.332;6.514;2024-03-08T09:29:30;9.90;;;5.15;;
82950;SDS011;72737;53.332;6.514;2024-03-08T09:31:55;11.05;;;5.88;;
82950;SDS011;72737;53.332;6.514;2024-03-08T09:34:22;9.02;;;4.97;;
82950;SDS011;72737;53.332;6.514;2024-03-08T09:36:48;10.65;;;5.63;;
82950;SDS011;72737;53.332;6.514;2024-03-08T09:39:15;9.35;;;5.85;;
82950;SDS011;72737;53.332;6.514;2024-03-08T09:41:45;10.73;;;5.60;;
82950;SDS011;72737;53.332;6.514;2024-03-08T09:44:14;11.30;;;5.40;;
82950;SDS011;72737;53.332;6.514;2024-03-08T09:46:45;10.48;;;5.55;;
82950;SDS011;72737;53.332;6.514;2024-03-08T09:49:12;9.75;;;5.45;;
82950;SDS011;72737;53.332;6.514;2024-03-08T09:51:38;10.95;;;5.35;;
82950;SDS011;72737;53.332;6.514;2024-03-08T09:54:05;10.13;;;5.47;;
82950;SDS011;72737;53.332;6.514;2024-03-08T09:56:34;11.05;;;5.65;;
82950;SDS011;72737;53.332;6.514;2024-03-08T09:59:02;9.27;;;5.00;;
82950;SDS011;72737;53.332;6.514;2024-03-08T10:01:37;10.63;;;5.70;;
82950;SDS011;72737;53.332;6.514;2024-03-08T10:04:05;10.73;;;6.00;;
82950;SDS011;72737;53.332;6.514;2024-03-08T10:06:31;9.20;;;5.65;;
82950;SDS011;72737;53.332;6.514;2024-03-08T10:08:57;8.50;;;4.97;;
82950;SDS011;72737;53.332;6.514;2024-03-08T10:11:24;10.07;;;5.40;;
82950;SDS011;72737;53.332;6.514;2024-03-08T10:13:51;9.70;;;5.43;;
82950;SDS011;72737;53.332;6.514;2024-03-08T10:16:16;10.68;;;5.43;;
82950;SDS011;72737;53.332;6.514;2024-03-08T10:18:42;11.38;;;4.97;;
82950;SDS011;72737;53.332;6.514;2024-03-08T10:21:08;9.10;;;5.80;;
82950;SDS011;72737;53.332;6.514;2024-03-08T10:23:35;10.80;;;6.03;;
82950;SDS011;72737;53.332;6.514;2024-03-08T10:26:11;8.98;;;5.28;;
82950;SDS011;72737;53.332;6.514;2024-03-08T10:28:44;10.20;;;5.53;;
82950;SDS011;72737;53.332;6.514;2024-03-08T10:31:14;9.27;;;5.25;;
82950;SDS011;72737;53.332;6.514;2024-03-08T10:33:40;8.95;;;5.43;;
82950;SDS011;72737;53.332;6.514;2024-03-08T10:36:09;9.32;;;5.05;;
82950;SDS011;72737;53.332;6.514;2024-03-08T10:38:37;9.70;;;5.55;;
82950;SDS011;72737;53.332;6.514;2024-03-08T10:41:08;8.80;;;4.55;;
82950;SDS011;72737;53.332;6.514;2024-03-08T10:46:29;10.27;;;5.10;;
82950;SDS011;72737;53.332;6.514;2024-03-08T10:49:05;8.45;;;5.50;;
82950;SDS011;72737;53.332;6.514;2024-03-08T10:51:38;9.52;;;5.60;;
82950;SDS011;72737;53.332;6.514;2024-03-08T10:54:07;8.93;;;5.13;;
82950;SDS011;72737;53.332;6.514;2024-03-08T10:56:35;9.38;;;5.40;;
82950;SDS011;72737;53.332;6.514;2024-03-08T10:59:01;9.15;;;5.00;;
82950;SDS011;72737;53.332;6.514;2024-03-08T11:01:30;10.20;;;5.45;;
82950;SDS011;72737;53.332;6.514;2024-03-08T11:03:56;9.20;;;5.07;;
82950;SDS011;72737;53.332;6.514;2024-03-08T11:09:02;9.30;;;5.57;;
82950;SDS011;72737;53.332;6.514;2024-03-08T11:11:29;8.93;;;5.45;;
82950;SDS011;72737;53.332;6.514;2024-03-08T11:13:57;8.40;;;5.60;;
82950;SDS011;72737;53.332;6.514;2024-03-08T11:18:59;9.27;;;5.65;;
82950;SDS011;72737;53.332;6.514;2024-03-08T11:21:29;9.30;;;5.00;;
82950;SDS011;72737;53.332;6.514;2024-03-08T11:24:06;8.88;;;5.38;;
82950;SDS011;72737;53.332;6.514;2024-03-08T11:26:33;9.80;;;5.38;;
82950;SDS011;72737;53.332;6.514;2024-03-08T11:34:17;8.55;;;4.85;;
82950;SDS011;72737;53.332;6.514;2024-03-08T11:36:44;9.48;;;5.30;;
82950;SDS011;72737;53.332;6.514;2024-03-08T11:39:13;8.68;;;5.35;;
82950;SDS011;72737;53.332;6.514;2024-03-08T11:41:39;8.90;;;5.20;;
82950;SDS011;72737;53.332;6.514;2024-03-08T11:44:07;9.80;;;5.53;;
82950;SDS011;72737;53.332;6.514;2024-03-08T11:46:34;9.90;;;5.38;;
82950;SDS011;72737;53.332;6.514;2024-03-08T11:48:59;9.25;;;5.57;;
82950;SDS011;72737;53.332;6.514;2024-03-08T11:51:26;11.40;;;5.20;;
82950;SDS011;72737;53.332;6.514;2024-03-08T11:53:52;8.55;;;4.85;;
82950;SDS011;72737;53.332;6.514;2024-03-08T11:56:18;10.38;;;5.20;;
82950;SDS011;72737;53.332;6.514;2024-03-08T11:58:53;8.43;;;4.90;;
82950;SDS011;72737;53.332;6.514;2024-03-08T12:01:22;8.45;;;5.15;;
82950;SDS011;72737;53.332;6.514;2024-03-08T12:03:55;8.75;;;5.07;;
82950;SDS011;72737;53.332;6.514;2024-03-08T12:06:24;8.90;;;5.28;;
82950;SDS011;72737;53.332;6.514;2024-03-08T12:08:50;8.77;;;5.15;;
82950;SDS011;72737;53.332;6.514;2024-03-08T12:11:19;9.20;;;5.03;;
82950;SDS011;72737;53.332;6.514;2024-03-08T12:13:48;9.02;;;5.03;;
82950;SDS011;72737;53.332;6.514;2024-03-08T12:16:19;8.45;;;5.15;;
82950;SDS011;72737;53.332;6.514;2024-03-08T12:18:46;8.38;;;5.45;;
82950;SDS011;72737;53.332;6.514;2024-03-08T12:21:13;8.88;;;4.90;;
82950;SDS011;72737;53.332;6.514;2024-03-08T12:23:42;9.63;;;5.50;;
82950;SDS011;72737;53.332;6.514;2024-03-08T12:28:39;8.05;;;4.97;;
82950;SDS011;72737;53.332;6.514;2024-03-08T12:31:07;7.65;;;4.97;;
82950;SDS011;72737;53.332;6.514;2024-03-08T12:33:48;10.80;;;5.35;;
82950;SDS011;72737;53.332;6.514;2024-03-08T12:36:19;9.25;;;5.35;;
82950;SDS011;72737;53.332;6.514;2024-03-08T12:38:48;8.85;;;5.43;;
82950;SDS011;72737;53.332;6.514;2024-03-08T12:41:14;8.82;;;5.40;;
82950;SDS011;72737;53.332;6.514;2024-03-08T12:43:40;9.38;;;5.53;;
82950;SDS011;72737;53.332;6.514;2024-03-08T12:46:06;8.80;;;5.30;;
82950;SDS011;72737;53.332;6.514;2024-03-08T12:48:37;8.00;;;5.20;;
82950;SDS011;72737;53.332;6.514;2024-03-08T12:51:07;7.68;;;5.15;;
82950;SDS011;72737;53.332;6.514;2024-03-08T12:53:33;8.32;;;4.93;;
82950;SDS011;72737;53.332;6.514;2024-03-08T12:56:01;8.95;;;5.43;;
82950;SDS011;72737;53.332;6.514;2024-03-08T12:58:26;8.63;;;5.00;;
82950;SDS011;72737;53.332;6.514;2024-03-08T13:00:52;8.57;;;5.28;;
82950;SDS011;72737;53.332;6.514;2024-03-08T13:03:17;8.73;;;5.30;;
82950;SDS011;72737;53.332;6.514;2024-03-08T13:05:43;11.05;;;5.50;;
82950;SDS011;72737;53.332;6.514;2024-03-08T13:08:08;8.20;;;5.25;;
82950;SDS011;72737;53.332;6.514;2024-03-08T13:10:41;8.15;;;5.13;;
82950;SDS011;72737;53.332;6.514;2024-03-08T13:13:11;9.05;;;5.22;;
82950;SDS011;72737;53.332;6.514;2024-03-08T13:15:40;8.70;;;5.20;;
82950;SDS011;72737;53.332;6.514;2024-03-08T13:18:07;8.13;;;5.30;;
82950;SDS011;72737;53.332;6.514;2024-03-08T13:20:34;9.13;;;5.00;;
82950;SDS011;72737;53.332;6.514;2024-03-08T13:23:02;8.20;;;4.97;;
82950;SDS011;72737;53.332;6.514;2024-03-08T13:25:31;7.47;;;4.78;;
82950;SDS011;72737;53.332;6.514;2024-03-08T13:27:57;8.27;;;5.10;;
82950;SDS011;72737;53.332;6.514;2024-03-08T13:30:25;7.97;;;4.75;;
82950;SDS011;72737;53.332;6.514;2024-03-08T13:32:54;9.20;;;5.43;;
82950;SDS011;72737;53.332;6.514;2024-03-08T13:35:21;9.27;;;5.60;;
82950;SDS011;72737;53.332;6.514;2024-03-08T13:37:55;8.35;;;4.90;;
82950;SDS011;72737;53.332;6.514;2024-03-08T13:40:20;8.35;;;5.45;;
82950;SDS011;72737;53.332;6.514;2024-03-08T13:42:46;9.90;;;5.80;;
82950;SDS011;72737;53.332;6.514;2024-03-08T13:45:14;8.63;;;5.25;;
82950;SDS011;72737;53.332;6.514;2024-03-08T13:47:43;8.50;;;5.65;;
82950;SDS011;72737;53.332;6.514;2024-03-08T13:50:09;8.88;;;5.45;;
82950;SDS011;72737;53.332;6.514;2024-03-08T13:52:43;8.35;;;4.97;;
82950;SDS011;72737;53.332;6.514;2024-03-08T13:55:09;8.50;;;5.18;;
82950;SDS011;72737;53.332;6.514;2024-03-08T13:57:35;8.07;;;5.20;;
82950;SDS011;72737;53.332;6.514;2024-03-08T14:00:00;10.02;;;5.70;;
82950;SDS011;72737;53.332;6.514;2024-03-08T14:02:27;8.77;;;5.22;;
82950;SDS011;72737;53.332;6.514;2024-03-08T14:04:56;8.80;;;5.40;;
82950;SDS011;72737;53.332;6.514;2024-03-08T14:07:22;8.45;;;5.35;;
82950;SDS011;72737;53.332;6.514;2024-03-08T14:09:51;8.35;;;5.22;;
82950;SDS011;72737;53.332;6.514;2024-03-08T14:12:18;8.18;;;5.32;;
82950;SDS011;72737;53.332;6.514;2024-03-08T14:14:44;8.73;;;5.30;;
82950;SDS011;72737;53.332;6.514;2024-03-08T14:17:10;8.27;;;5.07;;
82950;SDS011;72737;53.332;6.514;2024-03-08T14:19:36;7.70;;;4.65;;
82950;SDS011;72737;53.332;6.514;2024-03-08T14:22:04;7.82;;;5.18;;
82950;SDS011;72737;53.332;6.514;2024-03-08T14:24:30;8.48;;;5.05;;
82950;SDS011;72737;53.332;6.514;2024-03-08T14:26:56;10.30;;;5.40;;
82950;SDS011;72737;53.332;6.514;2024-03-08T14:29:24;7.95;;;4.93;;
82950;SDS011;72737;53.332;6.514;2024-03-08T14:31:54;10.68;;;5.75;;
82950;SDS011;72737;53.332;6.514;2024-03-08T14:34:22;7.80;;;4.90;;
82950;SDS011;72737;53.332;6.514;2024-03-08T14:36:51;8.88;;;5.45;;
82950;SDS011;72737;53.332;6.514;2024-03-08T14:39:18;8.63;;;5.53;;
82950;SDS011;72737;53.332;6.514;2024-03-08T14:41:47;8.45;;;5.13;;
82950;SDS011;72737;53.332;6.514;2024-03-08T14:44:13;9.00;;;4.97;;
82950;SDS011;72737;53.332;6.514;2024-03-08T14:46:40;7.55;;;4.75;;
82950;SDS011;72737;53.332;6.514;2024-03-08T14:49:08;9.40;;;5.57;;
82950;SDS011;72737;53.332;6.514;2024-03-08T14:51:33;8.02;;;5.22;;
82950;SDS011;72737;53.332;6.514;2024-03-08T14:54:00;8.70;;;5.20;;
82950;SDS011;72737;53.332;6.514;2024-03-08T14:56:25;8.70;;;5.28;;
82950;SDS011;72737;53.332;6.514;2024-03-08T14:58:52;8.43;;;5.10;;
82950;SDS011;72737;53.332;6.514;2024-03-08T15:01:18;9.05;;;5.43;;
82950;SDS011;72737;53.332;6.514;2024-03-08T15:03:49;8.27;;;5.07;;
82950;SDS011;72737;53.332;6.514;2024-03-08T15:06:15;8.68;;;5.38;;
82950;SDS011;72737;53.332;6.514;2024-03-08T15:08:45;7.60;;;4.80;;
82950;SDS011;72737;53.332;6.514;2024-03-08T15:11:11;8.02;;;4.90;;
82950;SDS011;72737;53.332;6.514;2024-03-08T15:13:37;8.52;;;5.28;;
82950;SDS011;72737;53.332;6.514;2024-03-08T15:16:06;7.55;;;4.95;;
82950;SDS011;72737;53.332;6.514;2024-03-08T15:18:34;8.50;;;5.03;;
82950;SDS011;72737;53.332;6.514;2024-03-08T15:21:04;8.25;;;4.82;;